Time;durP1;ratioP1;P1;durP2;ratioP2;P2;SDS_P1;SDS_P2;PMS_P1;PMS_P2;Temp;Humidity;BMP_temperature;BMP_pressure;BME280_temperature;BME280_humidity;BME280_pressure;Samples;Min_cycle;Max_cycle;Signal;HPM_P1;HPM_P2
2022/07/27 00:00:18;;;;;;;;;;;;;;;;;;2089986;28;20003;-43
2022/07/27 00:01:19;;;;;;;;;;;;;;;;;;2089854;28;20015;-42
2022/07/27 00:02:20;;;;;;;;;;;;;;;;;;2089953;28;19964;-42
2022/07/27 00:03:22;;;;;;;;;;;;;;;;;;2089944;28;20397;-42
2022/07/27 00:04:23;;;;;;;;;;;;;;;;;;2089783;28;19986;-43
2022/07/27 00:05:24;;;;;;;;;;;;;;;;;;2089696;28;19925;-42
2022/07/27 00:06:25;;;;;;;;;;;;;;;;;;2089771;28;20367;-42
2022/07/27 00:07:25;;;;;;;;;;;;;;;;;;2089707;28;20238;-42
2022/07/27 00:08:26;;;;;;;;;;;;;;;;;;2089787;28;19925;-42
2022/07/27 00:09:27;;;;;;;;;;;;;;;;;;2089731;28;19967;-42
2022/07/27 00:10:28;;;;;;;;;;;;;;;;;;2089780;28;19925;-42
2022/07/27 00:11:29;;;;;;;;;;;;;;;;;;2085033;28;20024;-42
2022/07/27 00:12:30;;;;;;;;;;;;;;;;;;2081475;28;19937;-42
2022/07/27 00:13:30;;;;;;;;;;;;;;;;;;2081457;28;20372;-43
2022/07/27 00:14:32;;;;;;;;;;;;;;;;;;2081525;28;19929;-42
2022/07/27 00:15:32;;;;;;;;;;;;;;;;;;2081569;28;20408;-42
2022/07/27 00:16:33;;;;;;;;;;;;;;;;;;2081358;28;19929;-42
2022/07/27 00:17:34;;;;;;;;;;;;;;;;;;2081494;28;20383;-42
2022/07/27 00:18:35;;;;;;;;;;;;;;;;;;2081542;28;20148;-42
2022/07/27 00:19:36;;;;;;;;;;;;;;;;;;2083669;28;19992;-42
2022/07/27 00:20:38;;;;;;;;;;;;;;;;;;2089602;28;19970;-42
2022/07/27 00:21:39;;;;;;;;;;;;;;;;;;2089796;28;19925;-42
2022/07/27 00:22:45;;;;;;;;;;;;;;;;;;2089872;28;19975;-42
2022/07/27 00:23:46;;;;;;;;;;;;;;;;;;2089899;28;20436;-42
2022/07/27 00:24:46;;;;;;;;;;;;;;;;;;2089646;28;19932;-42
2022/07/27 00:25:47;;;;;;;;;;;;;;;;;;2089602;28;20363;-42
2022/07/27 00:26:48;;;;;;;;;;;;;;;;;;2089644;28;20442;-42
2022/07/27 00:27:49;;;;;;;;;;;;;;;;;;2089775;28;19978;-42
2022/07/27 00:28:50;;;;;;;;;;;;;;;;;;2089769;28;19970;-43
2022/07/27 00:29:51;;;;;;;;;;;;;;;;;;2089598;28;20263;-43
2022/07/27 00:30:51;;;;;;;;;;;;;;;;;;2089652;28;20019;-42
2022/07/27 00:31:52;;;;;;;;;;;;;;;;;;2089634;28;20015;-42
2022/07/27 00:32:53;;;;;;;;;;;;;;;;;;2089650;28;19924;-42
2022/07/27 00:33:54;;;;;;;;;;;;;;;;;;2089687;28;19939;-43
2022/07/27 00:34:55;;;;;;;;;;;;;;;;;;2089590;28;20328;-43
2022/07/27 00:35:56;;;;;;;;;;;;;;;;;;2089675;28;19931;-42
2022/07/27 00:36:57;;;;;;;;;;;;;;;;;;2089521;28;20043;-43
2022/07/27 00:37:58;;;;;;;;;;;;;;;;;;2089643;28;20373;-43
2022/07/27 00:38:59;;;;;;;;;;;;;;;;;;2089619;28;20410;-42
2022/07/27 00:40:01;;;;;;;;;;;;;;;;;;2089700;28;20285;-43
2022/07/27 00:41:02;;;;;;;;;;;;;;;;;;2089505;28;19932;-42
2022/07/27 00:42:02;;;;;;;;;;;;;;;;;;2089705;28;19932;-43
2022/07/27 00:43:03;;;;;;;;;;;;;;;;;;2089623;28;19952;-43
2022/07/27 00:44:05;;;;;;;;;;;;;;;;;;2089451;28;20413;-43
2022/07/27 00:45:06;;;;;;;;;;;;;;;;;;2089555;28;20444;-44
2022/07/27 00:46:07;;;;;;;;;;;;;;;;;;2089563;28;19928;-43
2022/07/27 00:47:08;;;;;;;;;;;;;;;;;;2089618;28;20298;-43
2022/07/27 00:48:09;;;;;;;;;;;;;;;;;;2089537;28;19978;-43
2022/07/27 00:49:10;;;;;;;;;;;;;;;;;;2089687;28;19929;-43
2022/07/27 00:50:11;;;;;;;;;;;;;;;;;;2089437;28;19928;-45
2022/07/27 00:51:12;;;;;;;;;;;;;;;;;;2089523;28;19951;-43
2022/07/27 00:52:12;;;;;;;;;;;;;;;;;;2089569;28;19925;-44
2022/07/27 00:53:13;;;;;;;;;;;;;;;;;;2089453;28;20370;-43
2022/07/27 00:54:14;;;;;;;;;;;;;;;;;;2089565;28;19931;-44
2022/07/27 00:55:15;;;;;;;;;;;;;;;;;;2089651;28;20393;-43
2022/07/27 00:56:16;;;;;;;;;;;;;;;;;;2089426;28;20364;-43
2022/07/27 00:57:17;;;;;;;;;;;;;;;;;;2089476;28;20012;-44
2022/07/27 00:58:17;;;;;;;;;;;;;;;;;;2089664;28;20012;-43
2022/07/27 00:59:18;;;;;;;;;;;;;;;;;;2089499;28;19931;-43
2022/07/27 01:00:20;;;;;;;;;;;;;;;;;;2091143;28;20334;-43
2022/07/27 01:01:21;;;;;;;;;;;;;;;;;;2090999;28;20016;-45
2022/07/27 01:02:22;;;;;;;;;;;;;;;;;;2091106;28;19933;-44
2022/07/27 01:03:23;;;;;;;;;;;;;;;;;;2090994;28;19924;-43
2022/07/27 01:04:30;;;;;;;;;;;;;;;;;;2091142;28;19924;-43
2022/07/27 01:05:31;;;;;;;;;;;;;;;;;;2090917;28;19925;-43
2022/07/27 01:06:37;;;;;;;;;;;;;;;;;;2091016;28;19932;-43
2022/07/27 01:07:38;;;;;;;;;;;;;;;;;;2090967;28;20461;-43
2022/07/27 01:08:38;;;;;;;;;;;;;;;;;;2091072;28;19960;-44
2022/07/27 01:09:58;;;;;;;;;;;;;;;;;;2090890;28;20358;-43
2022/07/27 01:10:59;;;;;;;;;;;;;;;;;;2090367;28;19925;-43
2022/07/27 01:12:00;;;;;;;;;;;;;;;;;;2082620;28;19925;-43
2022/07/27 01:13:00;;;;;;;;;;;;;;;;;;2082691;28;19926;-44
2022/07/27 01:14:01;;;;;;;;;;;;;;;;;;2082758;28;20386;-43
2022/07/27 01:15:02;;;;;;;;;;;;;;;;;;2082622;28;19925;-44
2022/07/27 01:16:03;;;;;;;;;;;;;;;;;;2086668;28;20031;-44
2022/07/27 01:17:04;;;;;;;;;;;;;;;;;;2090920;28;20285;-44
2022/07/27 01:18:05;;;;;;;;;;;;;;;;;;2090793;28;19925;-43
2022/07/27 01:19:06;;;;;;;;;;;;;;;;;;2090917;28;20043;-43
2022/07/27 01:20:07;;;;;;;;;;;;;;;;;;2091079;28;20149;-43
2022/07/27 01:21:08;;;;;;;;;;;;;;;;;;2090914;28;19931;-43
2022/07/27 01:22:09;;;;;;;;;;;;;;;;;;2090948;28;19924;-44
2022/07/27 01:23:09;;;;;;;;;;;;;;;;;;2091079;28;19925;-43
2022/07/27 01:24:10;;;;;;;;;;;;;;;;;;2090778;28;20301;-43
2022/07/27 01:25:11;;;;;;;;;;;;;;;;;;2090855;28;19929;-43
2022/07/27 01:26:12;;;;;;;;;;;;;;;;;;2090696;28;19924;-43
2022/07/27 01:27:13;;;;;;;;;;;;;;;;;;2090884;28;20392;-43
2022/07/27 01:28:14;;;;;;;;;;;;;;;;;;2090856;28;19931;-44
2022/07/27 01:29:15;;;;;;;;;;;;;;;;;;2090937;28;19932;-43
2022/07/27 01:30:29;;;;;;;;;;;;;;;;;;2090656;28;20382;-43
2022/07/27 01:31:30;;;;;;;;;;;;;;;;;;2090752;28;20019;-43
2022/07/27 01:32:30;;;;;;;;;;;;;;;;;;2090845;28;20397;-43
2022/07/27 01:33:31;;;;;;;;;;;;;;;;;;2090874;28;19956;-43
2022/07/27 01:34:32;;;;;;;;;;;;;;;;;;2090747;28;19932;-44
2022/07/27 01:35:33;;;;;;;;;;;;;;;;;;2090738;28;19929;-43
2022/07/27 01:36:34;;;;;;;;;;;;;;;;;;2090688;28;20377;-43
2022/07/27 01:37:35;;;;;;;;;;;;;;;;;;2090709;28;19931;-44
2022/07/27 01:38:35;;;;;;;;;;;;;;;;;;2090869;28;19925;-43
2022/07/27 01:39:37;;;;;;;;;;;;;;;;;;2090686;28;20028;-43
2022/07/27 01:40:38;;;;;;;;;;;;;;;;;;2090754;28;20015;-43
2022/07/27 01:41:39;;;;;;;;;;;;;;;;;;2090720;28;19956;-43
2022/07/27 01:42:40;;;;;;;;;;;;;;;;;;2090619;28;19968;-43
2022/07/27 01:43:41;;;;;;;;;;;;;;;;;;2090813;28;19964;-44
2022/07/27 01:44:42;;;;;;;;;;;;;;;;;;2090753;28;20015;-43
2022/07/27 01:45:43;;;;;;;;;;;;;;;;;;2090770;28;20003;-43
2022/07/27 01:46:44;;;;;;;;;;;;;;;;;;2090650;28;19960;-43
2022/07/27 01:47:45;;;;;;;;;;;;;;;;;;2090776;28;19932;-43
2022/07/27 01:48:45;;;;;;;;;;;;;;;;;;2090521;28;19925;-43
2022/07/27 01:49:47;;;;;;;;;;;;;;;;;;2090683;28;19928;-43
2022/07/27 01:50:49;;;;;;;;;;;;;;;;;;2090758;28;19925;-43
2022/07/27 01:51:50;;;;;;;;;;;;;;;;;;2090489;28;20028;-43
2022/07/27 01:52:51;;;;;;;;;;;;;;;;;;2090612;28;19935;-43
2022/07/27 01:53:52;;;;;;;;;;;;;;;;;;2090632;28;19925;-43
2022/07/27 01:54:53;;;;;;;;;;;;;;;;;;2090581;28;19925;-43
2022/07/27 01:55:54;;;;;;;;;;;;;;;;;;2090630;28;20017;-43
2022/07/27 01:56:54;;;;;;;;;;;;;;;;;;2090536;28;20370;-44
2022/07/27 01:57:56;;;;;;;;;;;;;;;;;;2090582;28;19925;-43
2022/07/27 01:58:57;;;;;;;;;;;;;;;;;;2090773;28;19925;-43
2022/07/27 01:59:59;;;;;;;;;;;;;;;;;;2090675;28;20031;-44
2022/07/27 02:00:59;;;;;;;;;;;;;;;;;;2090796;28;20016;-44
2022/07/27 02:02:00;;;;;;;;;;;;;;;;;;2090584;28;19929;-43
2022/07/27 02:03:01;;;;;;;;;;;;;;;;;;2090729;28;20032;-43
2022/07/27 02:04:02;;;;;;;;;;;;;;;;;;2090606;28;19924;-43
2022/07/27 02:05:03;;;;;;;;;;;;;;;;;;2090699;28;19998;-43
2022/07/27 02:06:04;;;;;;;;;;;;;;;;;;2090666;28;20388;-43
2022/07/27 02:07:05;;;;;;;;;;;;;;;;;;2090424;28;20020;-44
2022/07/27 02:08:06;;;;;;;;;;;;;;;;;;2090760;28;20393;-43
2022/07/27 02:09:07;;;;;;;;;;;;;;;;;;2090562;28;20011;-43
2022/07/27 02:10:08;;;;;;;;;;;;;;;;;;2090678;28;19931;-43
2022/07/27 02:12:37;;;;;;;;;;;;;;;;;;2087584;28;19928;-43
2022/07/27 02:13:38;;;;;;;;;;;;;;;;;;2090413;28;19925;-43
2022/07/27 02:14:39;;;;;;;;;;;;;;;;;;2090521;28;19971;-43
2022/07/27 02:15:40;;;;;;;;;;;;;;;;;;2090663;28;20378;-43
2022/07/27 02:16:43;;;;;;;;;;;;;;;;;;2090587;28;19964;-43
2022/07/27 02:17:44;;;;;;;;;;;;;;;;;;2090383;28;19924;-44
2022/07/27 02:18:45;;;;;;;;;;;;;;;;;;2090660;28;19928;-44
2022/07/27 02:19:46;;;;;;;;;;;;;;;;;;2090743;28;20008;-45
2022/07/27 02:20:47;;;;;;;;;;;;;;;;;;2090527;28;20245;-43
2022/07/27 02:21:48;;;;;;;;;;;;;;;;;;2090317;28;19932;-44
2022/07/27 02:22:49;;;;;;;;;;;;;;;;;;2090441;28;19943;-43
2022/07/27 02:23:50;;;;;;;;;;;;;;;;;;2090593;28;19925;-43
2022/07/27 02:24:50;;;;;;;;;;;;;;;;;;2090372;28;20019;-43
2022/07/27 02:25:51;;;;;;;;;;;;;;;;;;2090430;28;20054;-43
2022/07/27 02:26:52;;;;;;;;;;;;;;;;;;2090402;28;19925;-43
2022/07/27 02:27:53;;;;;;;;;;;;;;;;;;2090340;28;19931;-44
2022/07/27 02:28:54;;;;;;;;;;;;;;;;;;2090430;28;20374;-44
2022/07/27 02:29:56;;;;;;;;;;;;;;;;;;2090644;28;19925;-44
2022/07/27 02:30:57;;;;;;;;;;;;;;;;;;2090426;28;20011;-43
2022/07/27 02:31:58;;;;;;;;;;;;;;;;;;2090447;28;19925;-44
2022/07/27 02:32:59;;;;;;;;;;;;;;;;;;2090448;28;20386;-43
2022/07/27 02:34:00;;;;;;;;;;;;;;;;;;2089785;28;19925;-44
2022/07/27 02:35:01;;;;;;;;;;;;;;;;;;2089956;28;19987;-44
2022/07/27 02:36:03;;;;;;;;;;;;;;;;;;2089604;28;20127;-44
2022/07/27 02:37:04;;;;;;;;;;;;;;;;;;2089719;28;20394;-43
2022/07/27 02:38:05;;;;;;;;;;;;;;;;;;2090337;28;19925;-43
2022/07/27 02:39:06;;;;;;;;;;;;;;;;;;2090615;28;19999;-43
2022/07/27 02:40:07;;;;;;;;;;;;;;;;;;2090262;28;20340;-43
2022/07/27 02:41:08;;;;;;;;;;;;;;;;;;2090238;28;19932;-43
2022/07/27 02:42:09;;;;;;;;;;;;;;;;;;2090485;28;20285;-43
2022/07/27 02:43:10;;;;;;;;;;;;;;;;;;2090159;28;19924;-43
2022/07/27 02:44:13;;;;;;;;;;;;;;;;;;2090562;28;20015;-44
2022/07/27 02:45:14;;;;;;;;;;;;;;;;;;2090317;28;20016;-43
2022/07/27 02:46:15;;;;;;;;;;;;;;;;;;2090155;28;20410;-44
2022/07/27 02:47:16;;;;;;;;;;;;;;;;;;2090299;28;19925;-43
2022/07/27 02:48:17;;;;;;;;;;;;;;;;;;2090455;28;20013;-43
2022/07/27 02:49:18;;;;;;;;;;;;;;;;;;2090147;28;19978;-44
2022/07/27 02:50:19;;;;;;;;;;;;;;;;;;2090257;28;20037;-43
2022/07/27 02:51:20;;;;;;;;;;;;;;;;;;2090221;28;20023;-44
2022/07/27 02:52:21;;;;;;;;;;;;;;;;;;2090185;28;19925;-43
2022/07/27 02:53:22;;;;;;;;;;;;;;;;;;2090300;28;19937;-44
2022/07/27 02:54:23;;;;;;;;;;;;;;;;;;2090271;28;20015;-44
2022/07/27 02:55:24;;;;;;;;;;;;;;;;;;2090275;28;19929;-44
2022/07/27 02:56:25;;;;;;;;;;;;;;;;;;2090153;28;19924;-44
2022/07/27 02:57:27;;;;;;;;;;;;;;;;;;2090373;28;20011;-43
2022/07/27 02:58:28;;;;;;;;;;;;;;;;;;2090196;28;19925;-44
2022/07/27 02:59:29;;;;;;;;;;;;;;;;;;2090369;28;20296;-44
2022/07/27 03:00:30;;;;;;;;;;;;;;;;;;2090273;28;19931;-43
2022/07/27 03:01:31;;;;;;;;;;;;;;;;;;2090447;28;19925;-43
2022/07/27 03:02:32;;;;;;;;;;;;;;;;;;2090329;28;19929;-44
2022/07/27 03:03:33;;;;;;;;;;;;;;;;;;2090397;28;19931;-44
2022/07/27 03:04:37;;;;;;;;;;;;;;;;;;2090367;28;19932;-44
2022/07/27 03:05:38;;;;;;;;;;;;;;;;;;2090177;28;20020;-44
2022/07/27 03:06:39;;;;;;;;;;;;;;;;;;2090078;28;20366;-45
2022/07/27 03:07:40;;;;;;;;;;;;;;;;;;2090394;28;19932;-44
2022/07/27 03:08:41;;;;;;;;;;;;;;;;;;2090125;28;20012;-44
2022/07/27 03:09:42;;;;;;;;;;;;;;;;;;2090054;28;20346;-46
2022/07/27 03:10:43;;;;;;;;;;;;;;;;;;2090127;28;19931;-44
2022/07/27 03:11:48;;;;;;;;;;;;;;;;;;2082640;28;20283;-44
2022/07/27 03:12:49;;;;;;;;;;;;;;;;;;2082006;28;19932;-44
2022/07/27 03:13:50;;;;;;;;;;;;;;;;;;2081897;28;19926;-45
2022/07/27 03:14:51;;;;;;;;;;;;;;;;;;2081873;28;19925;-44
2022/07/27 03:15:52;;;;;;;;;;;;;;;;;;2081971;28;20015;-44
2022/07/27 03:16:53;;;;;;;;;;;;;;;;;;2081675;28;20016;-44
2022/07/27 03:17:54;;;;;;;;;;;;;;;;;;2082024;28;19925;-43
2022/07/27 03:18:56;;;;;;;;;;;;;;;;;;2081846;28;19931;-43
2022/07/27 03:19:57;;;;;;;;;;;;;;;;;;2081789;28;19960;-43
2022/07/27 03:20:58;;;;;;;;;;;;;;;;;;2081892;28;19925;-44
2022/07/27 03:21:59;;;;;;;;;;;;;;;;;;2081964;28;19925;-44
2022/07/27 03:23:00;;;;;;;;;;;;;;;;;;2081466;28;20382;-43
2022/07/27 03:24:00;;;;;;;;;;;;;;;;;;2082045;28;19925;-45
2022/07/27 03:25:01;;;;;;;;;;;;;;;;;;2081757;28;19925;-44
2022/07/27 03:26:02;;;;;;;;;;;;;;;;;;2081812;28;20016;-45
2022/07/27 03:27:03;;;;;;;;;;;;;;;;;;2081836;28;20409;-43
2022/07/27 03:28:04;;;;;;;;;;;;;;;;;;2081682;28;20449;-43
2022/07/27 03:29:05;;;;;;;;;;;;;;;;;;2081823;28;19925;-43
2022/07/27 03:30:05;;;;;;;;;;;;;;;;;;2081697;28;20004;-43
2022/07/27 03:31:06;;;;;;;;;;;;;;;;;;2081807;28;20015;-44
2022/07/27 03:32:07;;;;;;;;;;;;;;;;;;2081774;28;19932;-43
2022/07/27 03:33:08;;;;;;;;;;;;;;;;;;2081771;28;20021;-44
2022/07/27 03:34:09;;;;;;;;;;;;;;;;;;2081811;28;19929;-44
2022/07/27 03:35:10;;;;;;;;;;;;;;;;;;2081876;28;20038;-43
2022/07/27 03:36:11;;;;;;;;;;;;;;;;;;2081785;28;20059;-43
2022/07/27 03:37:12;;;;;;;;;;;;;;;;;;2081755;28;19932;-43
2022/07/27 03:38:13;;;;;;;;;;;;;;;;;;2081845;28;20309;-44
2022/07/27 03:39:14;;;;;;;;;;;;;;;;;;2081682;28;19940;-43
2022/07/27 03:40:15;;;;;;;;;;;;;;;;;;2081797;28;19976;-44
2022/07/27 03:41:16;;;;;;;;;;;;;;;;;;2081878;28;20008;-44
2022/07/27 03:42:17;;;;;;;;;;;;;;;;;;2082057;28;20302;-43
2022/07/27 03:43:17;;;;;;;;;;;;;;;;;;2081706;28;20050;-43
2022/07/27 03:44:18;;;;;;;;;;;;;;;;;;2081676;28;20063;-43
2022/07/27 03:45:19;;;;;;;;;;;;;;;;;;2081679;28;19932;-43
2022/07/27 03:46:20;;;;;;;;;;;;;;;;;;2081736;28;19968;-43
2022/07/27 03:47:22;;;;;;;;;;;;;;;;;;2081566;28;19991;-44
2022/07/27 03:48:23;;;;;;;;;;;;;;;;;;2081619;28;20020;-43
2022/07/27 03:49:23;;;;;;;;;;;;;;;;;;2081642;28;20294;-43
2022/07/27 03:50:24;;;;;;;;;;;;;;;;;;2081664;28;19925;-45
2022/07/27 03:51:25;;;;;;;;;;;;;;;;;;2081610;28;20383;-44
2022/07/27 03:52:26;;;;;;;;;;;;;;;;;;2081573;28;19976;-44
2022/07/27 03:53:27;;;;;;;;;;;;;;;;;;2081672;28;19925;-46
2022/07/27 03:54:28;;;;;;;;;;;;;;;;;;2081545;28;20383;-44
2022/07/27 03:55:29;;;;;;;;;;;;;;;;;;2081574;28;20437;-44
2022/07/27 03:56:31;;;;;;;;;;;;;;;;;;2081552;28;19925;-45
2022/07/27 03:57:33;;;;;;;;;;;;;;;;;;2081895;28;20004;-46
2022/07/27 03:58:34;;;;;;;;;;;;;;;;;;2081735;28;19929;-44
2022/07/27 03:59:35;;;;;;;;;;;;;;;;;;2081882;28;19925;-47
2022/07/27 04:00:36;;;;;;;;;;;;;;;;;;2081763;28;20370;-45
2022/07/27 04:01:37;;;;;;;;;;;;;;;;;;2081482;28;20337;-45
2022/07/27 04:02:38;;;;;;;;;;;;;;;;;;2081551;28;19971;-46
2022/07/27 04:03:38;;;;;;;;;;;;;;;;;;2081521;28;19925;-45
2022/07/27 04:04:44;;;;;;;;;;;;;;;;;;2085154;28;20367;-44
2022/07/27 04:05:45;;;;;;;;;;;;;;;;;;2089619;28;20027;-43
2022/07/27 04:06:46;;;;;;;;;;;;;;;;;;2089793;28;20012;-43
2022/07/27 04:07:47;;;;;;;;;;;;;;;;;;2089910;28;19963;-43
2022/07/27 04:08:48;;;;;;;;;;;;;;;;;;2089828;28;19925;-45
2022/07/27 04:09:49;;;;;;;;;;;;;;;;;;2089721;28;20341;-43
2022/07/27 04:10:50;;;;;;;;;;;;;;;;;;2089676;28;19925;-43
2022/07/27 04:11:51;;;;;;;;;;;;;;;;;;2081879;28;20016;-44
2022/07/27 04:12:52;;;;;;;;;;;;;;;;;;2081431;28;19936;-45
2022/07/27 04:13:52;;;;;;;;;;;;;;;;;;2081637;28;19975;-43
2022/07/27 04:14:53;;;;;;;;;;;;;;;;;;2081363;28;19960;-44
2022/07/27 04:15:56;;;;;;;;;;;;;;;;;;2081699;28;20090;-44
2022/07/27 04:16:57;;;;;;;;;;;;;;;;;;2081381;28;19929;-44
2022/07/27 04:17:58;;;;;;;;;;;;;;;;;;2081572;28;19925;-44
2022/07/27 04:18:59;;;;;;;;;;;;;;;;;;2081525;28;19925;-44
2022/07/27 04:20:00;;;;;;;;;;;;;;;;;;2081596;28;19953;-44
2022/07/27 04:21:04;;;;;;;;;;;;;;;;;;2081325;28;20420;-44
2022/07/27 04:22:05;;;;;;;;;;;;;;;;;;2081423;28;19929;-45
2022/07/27 04:23:06;;;;;;;;;;;;;;;;;;2081456;28;19925;-45
2022/07/27 04:24:07;;;;;;;;;;;;;;;;;;2081366;28;19925;-44
2022/07/27 04:25:08;;;;;;;;;;;;;;;;;;2081496;28;20448;-43
2022/07/27 04:26:09;;;;;;;;;;;;;;;;;;2081460;28;20015;-45
2022/07/27 04:27:10;;;;;;;;;;;;;;;;;;2081353;28;20382;-43
2022/07/27 04:28:10;;;;;;;;;;;;;;;;;;2081566;28;19925;-46
2022/07/27 04:29:12;;;;;;;;;;;;;;;;;;2081489;28;20269;-45
2022/07/27 04:30:17;;;;;;;;;;;;;;;;;;2081391;28;19963;-45
2022/07/27 04:31:18;;;;;;;;;;;;;;;;;;2081557;28;20130;-46
2022/07/27 04:32:19;;;;;;;;;;;;;;;;;;2081563;28;19925;-46
2022/07/27 04:33:20;;;;;;;;;;;;;;;;;;2081617;28;19925;-44
2022/07/27 04:34:20;;;;;;;;;;;;;;;;;;2080782;28;20039;-43
2022/07/27 04:35:21;;;;;;;;;;;;;;;;;;2081429;28;19968;-44
2022/07/27 04:36:26;;;;;;;;;;;;;;;;;;2081598;28;19931;-44
2022/07/27 04:37:27;;;;;;;;;;;;;;;;;;2081719;28;19925;-46
2022/07/27 04:38:28;;;;;;;;;;;;;;;;;;2081526;28;20398;-46
2022/07/27 04:39:29;;;;;;;;;;;;;;;;;;2081426;28;19925;-46
2022/07/27 04:40:31;;;;;;;;;;;;;;;;;;2081290;28;19926;-45
2022/07/27 04:41:31;;;;;;;;;;;;;;;;;;2081464;28;20012;-47
2022/07/27 04:42:32;;;;;;;;;;;;;;;;;;2081364;28;19928;-45
2022/07/27 04:43:33;;;;;;;;;;;;;;;;;;2081636;28;19932;-46
2022/07/27 04:44:34;;;;;;;;;;;;;;;;;;2081379;28;19929;-46
2022/07/27 04:45:35;;;;;;;;;;;;;;;;;;2081487;28;20372;-44
2022/07/27 04:46:36;;;;;;;;;;;;;;;;;;2081290;28;19975;-44
2022/07/27 04:47:37;;;;;;;;;;;;;;;;;;2081455;28;19974;-46
2022/07/27 04:48:38;;;;;;;;;;;;;;;;;;2081201;28;20364;-46
2022/07/27 04:49:39;;;;;;;;;;;;;;;;;;2081967;28;20020;-43
2022/07/27 04:50:39;;;;;;;;;;;;;;;;;;2081243;28;19925;-44
2022/07/27 04:51:40;;;;;;;;;;;;;;;;;;2081230;28;19933;-44
2022/07/27 04:52:41;;;;;;;;;;;;;;;;;;2081398;28;19977;-43
2022/07/27 04:53:42;;;;;;;;;;;;;;;;;;2081442;28;19929;-44
2022/07/27 04:54:52;;;;;;;;;;;;;;;;;;2081578;28;19936;-45
2022/07/27 04:55:53;;;;;;;;;;;;;;;;;;2081272;28;19926;-46
2022/07/27 04:56:54;;;;;;;;;;;;;;;;;;2081353;28;20012;-46
2022/07/27 04:57:55;;;;;;;;;;;;;;;;;;2081135;28;20035;-45
2022/07/27 04:58:56;;;;;;;;;;;;;;;;;;2081390;28;20019;-46
2022/07/27 04:59:57;;;;;;;;;;;;;;;;;;2081319;28;19964;-45
2022/07/27 05:00:57;;;;;;;;;;;;;;;;;;2084401;28;19983;-46
2022/07/27 05:01:58;;;;;;;;;;;;;;;;;;2089322;28;19974;-46
2022/07/27 05:02:59;;;;;;;;;;;;;;;;;;2089664;28;19932;-45
2022/07/27 05:04:00;;;;;;;;;;;;;;;;;;2089389;28;20329;-46
2022/07/27 05:05:01;;;;;;;;;;;;;;;;;;2089565;28;20290;-46
2022/07/27 05:06:02;;;;;;;;;;;;;;;;;;2089401;28;19995;-46
2022/07/27 05:07:03;;;;;;;;;;;;;;;;;;2089420;28;19926;-45
2022/07/27 05:08:04;;;;;;;;;;;;;;;;;;2089703;28;19924;-46
2022/07/27 05:09:05;;;;;;;;;;;;;;;;;;2089558;28;19970;-45
2022/07/27 05:10:06;;;;;;;;;;;;;;;;;;2089467;28;19951;-45
2022/07/27 05:11:07;;;;;;;;;;;;;;;;;;2087810;28;20220;-46
2022/07/27 05:12:07;;;;;;;;;;;;;;;;;;2081233;28;20490;-45
2022/07/27 05:13:08;;;;;;;;;;;;;;;;;;2081297;28;19959;-44
2022/07/27 05:14:09;;;;;;;;;;;;;;;;;;2081522;28;19931;-45
2022/07/27 05:15:10;;;;;;;;;;;;;;;;;;2081497;28;19933;-46
2022/07/27 05:16:11;;;;;;;;;;;;;;;;;;2081001;28;20008;-46
2022/07/27 05:17:12;;;;;;;;;;;;;;;;;;2081595;28;20371;-45
2022/07/27 05:18:13;;;;;;;;;;;;;;;;;;2081172;28;20004;-46
2022/07/27 05:19:14;;;;;;;;;;;;;;;;;;2081315;28;19925;-47
2022/07/27 05:20:15;;;;;;;;;;;;;;;;;;2081236;28;19925;-46
2022/07/27 05:21:16;;;;;;;;;;;;;;;;;;2081276;28;19961;-45
2022/07/27 05:22:17;;;;;;;;;;;;;;;;;;2081064;28;20039;-45
2022/07/27 05:23:18;;;;;;;;;;;;;;;;;;2081372;28;20016;-45
2022/07/27 05:24:19;;;;;;;;;;;;;;;;;;2081194;28;19955;-45
2022/07/27 05:25:24;;;;;;;;;;;;;;;;;;2081066;28;19925;-44
2022/07/27 05:26:25;;;;;;;;;;;;;;;;;;2081168;28;19925;-44
2022/07/27 05:27:26;;;;;;;;;;;;;;;;;;2081146;28;19925;-45
2022/07/27 05:28:27;;;;;;;;;;;;;;;;;;2080980;28;20409;-44
2022/07/27 05:29:28;;;;;;;;;;;;;;;;;;2081288;28;20001;-44
2022/07/27 05:30:28;;;;;;;;;;;;;;;;;;2081094;28;19925;-44
2022/07/27 05:31:29;;;;;;;;;;;;;;;;;;2080952;28;20306;-45
2022/07/27 05:32:30;;;;;;;;;;;;;;;;;;2081224;28;19956;-45
2022/07/27 05:33:31;;;;;;;;;;;;;;;;;;2081161;28;19929;-45
2022/07/27 05:34:32;;;;;;;;;;;;;;;;;;2081153;28;19929;-44
2022/07/27 05:35:33;;;;;;;;;;;;;;;;;;2081327;28;19925;-43
2022/07/27 05:36:34;;;;;;;;;;;;;;;;;;2081037;28;20827;-43
2022/07/27 05:37:35;;;;;;;;;;;;;;;;;;2081167;28;19929;-43
2022/07/27 05:38:38;;;;;;;;;;;;;;;;;;2080994;28;19944;-43
2022/07/27 05:39:41;;;;;;;;;;;;;;;;;;2081250;28;20346;-45
2022/07/27 05:40:42;;;;;;;;;;;;;;;;;;2080998;28;20020;-46
2022/07/27 05:41:42;;;;;;;;;;;;;;;;;;2081101;28;20040;-45
2022/07/27 05:42:43;;;;;;;;;;;;;;;;;;2080998;28;19932;-43
2022/07/27 05:43:44;;;;;;;;;;;;;;;;;;2081294;28;19960;-43
2022/07/27 05:44:45;;;;;;;;;;;;;;;;;;2081114;28;20332;-42
2022/07/27 05:45:46;;;;;;;;;;;;;;;;;;2081945;28;20014;-42
2022/07/27 05:46:47;;;;;;;;;;;;;;;;;;2082619;28;19925;-44
2022/07/27 05:47:48;;;;;;;;;;;;;;;;;;2082504;28;20294;-45
2022/07/27 05:48:49;;;;;;;;;;;;;;;;;;2082570;28;19976;-44
2022/07/27 05:49:50;;;;;;;;;;;;;;;;;;2082279;28;19924;-45
2022/07/27 05:50:51;;;;;;;;;;;;;;;;;;2082344;28;19932;-44
2022/07/27 05:51:52;;;;;;;;;;;;;;;;;;2082361;28;19968;-45
2022/07/27 05:52:53;;;;;;;;;;;;;;;;;;2082274;28;20354;-44
2022/07/27 05:53:54;;;;;;;;;;;;;;;;;;2082651;28;19925;-43
2022/07/27 05:54:55;;;;;;;;;;;;;;;;;;2082433;28;19960;-43
2022/07/27 05:55:56;;;;;;;;;;;;;;;;;;2082433;28;20334;-45
2022/07/27 05:56:59;;;;;;;;;;;;;;;;;;2083924;28;19971;-44
2022/07/27 05:58:00;;;;;;;;;;;;;;;;;;2090419;28;20020;-44
2022/07/27 05:59:01;;;;;;;;;;;;;;;;;;2090679;28;20451;-45
2022/07/27 06:00:07;;;;;;;;;;;;;;;;;;2090964;28;19964;-45
2022/07/27 06:01:08;;;;;;;;;;;;;;;;;;2090480;28;20294;-44
2022/07/27 06:02:09;;;;;;;;;;;;;;;;;;2090583;28;19924;-44
2022/07/27 06:03:10;;;;;;;;;;;;;;;;;;2090795;28;20378;-44
2022/07/27 06:04:11;;;;;;;;;;;;;;;;;;2090570;28;20293;-44
2022/07/27 06:05:15;;;;;;;;;;;;;;;;;;2090632;28;20365;-43
2022/07/27 06:08:56;;;;;;;;;;;;;;;;;;2090655;28;20453;-44
2022/07/27 06:09:57;;;;;;;;;;;;;;;;;;2090453;28;19925;-44
2022/07/27 06:10:58;;;;;;;;;;;;;;;;;;2090274;28;20549;-42
2022/07/27 06:11:59;;;;;;;;;;;;;;;;;;2090492;28;19929;-43
2022/07/27 06:13:00;;;;;;;;;;;;;;;;;;2090618;28;19924;-44
2022/07/27 06:14:01;;;;;;;;;;;;;;;;;;2090507;28;20400;-43
2022/07/27 06:15:02;;;;;;;;;;;;;;;;;;2090464;28;19925;-43
2022/07/27 06:16:02;;;;;;;;;;;;;;;;;;2090633;28;19964;-42
2022/07/27 06:17:04;;;;;;;;;;;;;;;;;;2090812;28;19925;-45
2022/07/27 06:18:07;;;;;;;;;;;;;;;;;;2090881;28;20012;-45
2022/07/27 06:19:08;;;;;;;;;;;;;;;;;;2090508;28;20008;-46
2022/07/27 06:20:10;;;;;;;;;;;;;;;;;;2090481;28;19963;-45
2022/07/27 06:21:10;;;;;;;;;;;;;;;;;;2090460;28;20413;-46
2022/07/27 06:22:11;;;;;;;;;;;;;;;;;;2090521;28;19924;-45
2022/07/27 06:23:12;;;;;;;;;;;;;;;;;;2090486;28;19970;-45
2022/07/27 06:24:13;;;;;;;;;;;;;;;;;;2090651;28;19981;-45
2022/07/27 06:25:14;;;;;;;;;;;;;;;;;;2090488;28;19959;-46
2022/07/27 06:26:15;;;;;;;;;;;;;;;;;;2090289;28;19925;-45
2022/07/27 06:27:16;;;;;;;;;;;;;;;;;;2090607;28;20051;-45
2022/07/27 06:28:18;;;;;;;;;;;;;;;;;;2090464;28;19998;-46
2022/07/27 06:29:18;;;;;;;;;;;;;;;;;;2090449;28;20024;-42
2022/07/27 06:30:20;;;;;;;;;;;;;;;;;;2090306;28;19932;-43
2022/07/27 06:31:21;;;;;;;;;;;;;;;;;;2090280;28;20356;-44
2022/07/27 06:32:22;;;;;;;;;;;;;;;;;;2090277;28;19933;-43
2022/07/27 06:33:26;;;;;;;;;;;;;;;;;;2090464;28;20015;-43
2022/07/27 06:34:27;;;;;;;;;;;;;;;;;;2090376;28;19967;-44
2022/07/27 06:35:28;;;;;;;;;;;;;;;;;;2090484;28;20401;-43
2022/07/27 06:36:29;;;;;;;;;;;;;;;;;;2090268;28;19924;-43
2022/07/27 06:37:30;;;;;;;;;;;;;;;;;;2090736;28;20346;-45
2022/07/27 06:38:31;;;;;;;;;;;;;;;;;;2090341;28;19924;-48
2022/07/27 06:39:32;;;;;;;;;;;;;;;;;;2090555;28;19995;-46
2022/07/27 06:40:33;;;;;;;;;;;;;;;;;;2090725;28;19987;-44
2022/07/27 06:41:34;;;;;;;;;;;;;;;;;;2090241;28;20021;-43
2022/07/27 06:42:34;;;;;;;;;;;;;;;;;;2090464;28;20015;-44
2022/07/27 06:43:35;;;;;;;;;;;;;;;;;;2090220;28;20293;-43
2022/07/27 06:44:36;;;;;;;;;;;;;;;;;;2090733;28;20012;-44
2022/07/27 06:45:37;;;;;;;;;;;;;;;;;;2090280;28;20399;-43
2022/07/27 06:46:38;;;;;;;;;;;;;;;;;;2090496;28;20338;-46
2022/07/27 06:47:40;;;;;;;;;;;;;;;;;;2090271;28;19978;-46
2022/07/27 06:48:50;;;;;;;;;;;;;;;;;;2090474;28;19954;-48
2022/07/27 06:49:51;;;;;;;;;;;;;;;;;;2090250;28;19925;-45
2022/07/27 06:50:52;;;;;;;;;;;;;;;;;;2090261;28;19925;-45
2022/07/27 06:51:53;;;;;;;;;;;;;;;;;;2090322;28;19968;-48
2022/07/27 06:52:54;;;;;;;;;;;;;;;;;;2090357;28;20376;-43
2022/07/27 06:53:55;;;;;;;;;;;;;;;;;;2090112;28;19933;-43
2022/07/27 06:54:56;;;;;;;;;;;;;;;;;;2090158;28;20003;-44
2022/07/27 06:55:58;;;;;;;;;;;;;;;;;;2090347;28;19925;-44
2022/07/27 06:56:59;;;;;;;;;;;;;;;;;;2090256;28;19925;-46
2022/07/27 06:58:00;;;;;;;;;;;;;;;;;;2089828;28;19947;-46
2022/07/27 06:59:01;;;;;;;;;;;;;;;;;;2090426;28;20031;-44
2022/07/27 07:00:02;;;;;;;;;;;;;;;;;;2090165;28;20381;-45
2022/07/27 07:01:03;;;;;;;;;;;;;;;;;;2090106;28;19935;-47
2022/07/27 07:02:04;;;;;;;;;;;;;;;;;;2090526;28;20031;-46